Time;durP1;ratioP1;P1;durP2;ratioP2;P2;SDS_P1;SDS_P2;PMS_P1;PMS_P2;Temp;Humidity;BMP_temperature;BMP_pressure;BME280_temperature;BME280_humidity;BME280_pressure;Samples;Min_cycle;Max_cycle;Signal;HPM_P1;HPM_P2
2023/11/26 10:42:29;;;;;;;7.33;2.60;;;7.50;99.90;;;;;;4950633;23;20339;-76
2023/11/26 10:44:58;;;;;;;4.37;2.20;;;7.60;99.90;;;;;;4951170;28;20625;-76
2023/11/26 10:47:29;;;;;;;6.57;3.07;;;7.60;99.90;;;;;;4972149;28;20214;-74
2023/11/26 10:49:59;;;;;;;10.53;2.70;;;7.50;99.90;;;;;;4963441;28;20223;-75
2023/11/26 10:52:39;;;;;;;7.17;3.13;;;7.60;99.90;;;;;;4936740;29;20239;-74
2023/11/26 10:55:10;;;;;;;9.07;2.93;;;7.60;99.90;;;;;;4936318;29;20197;-73
2023/11/26 10:57:41;;;;;;;7.00;2.70;;;7.60;99.90;;;;;;4936879;29;20644;-74
2023/11/26 11:00:19;;;;;;;6.97;2.63;;;7.60;99.90;;;;;;4948683;28;20207;-73
2023/11/26 11:02:47;;;;;;;8.33;3.23;;;7.70;99.90;;;;;;4936475;29;20220;-73
2023/11/26 11:05:13;;;;;;;7.23;2.90;;;7.90;99.90;;;;;;4945193;28;20203;-73
2023/11/26 14:28:00;;;;;;;6.40;1.90;;;7.90;99.90;;;;;;4946808;23;20334;-76
2023/11/26 14:30:27;;;;;;;3.17;1.50;;;8.00;99.90;;;;;;4918303;29;20391;-76
2023/11/26 14:32:54;;;;;;;7.13;2.53;;;8.00;99.90;;;;;;4918554;29;20236;-76
2023/11/26 14:35:21;;;;;;;6.47;3.23;;;7.90;99.90;;;;;;4918037;29;20209;-77
2023/11/26 14:37:48;;;;;;;9.30;3.50;;;7.90;99.90;;;;;;4933299;29;20241;-76
2023/11/26 14:40:17;;;;;;;6.53;2.80;;;7.90;99.90;;;;;;4936472;29;20243;-77
2023/11/26 14:42:45;;;;;;;6.87;2.50;;;7.80;99.90;;;;;;4936476;29;20299;-77
2023/11/26 14:45:15;;;;;;;3.87;2.37;;;7.80;99.90;;;;;;4936812;29;20208;-73
2023/11/26 14:47:44;;;;;;;7.13;2.87;;;7.60;99.90;;;;;;4936314;29;20213;-76
2023/11/26 14:50:13;;;;;;;7.77;3.20;;;7.60;99.90;;;;;;4935874;29;20303;-73
2023/11/26 14:52:40;;;;;;;6.73;3.10;;;7.60;99.90;;;;;;4936357;29;20205;-75
2023/11/26 14:55:12;;;;;;;7.13;2.77;;;7.60;99.90;;;;;;4936439;29;20231;-77
2023/11/26 14:57:40;;;;;;;5.97;2.87;;;7.70;99.90;;;;;;4936447;29;20233;-75
2023/11/26 15:00:09;;;;;;;6.07;3.67;;;7.70;99.90;;;;;;4932581;29;20209;-76
2023/11/26 15:02:37;;;;;;;8.40;4.27;;;7.70;99.90;;;;;;4918350;29;20565;-74
2023/11/26 15:05:11;;;;;;;8.63;2.90;;;7.70;99.90;;;;;;4917425;29;20230;-75
2023/11/26 15:07:40;;;;;;;6.13;2.73;;;7.60;99.90;;;;;;4917185;29;20218;-76
2023/11/26 15:10:07;;;;;;;13.23;3.30;;;7.50;99.90;;;;;;4917242;29;20218;-76
2023/11/26 15:12:34;;;;;;;7.67;3.33;;;7.50;99.90;;;;;;4916974;29;20213;-75
2023/11/26 15:15:03;;;;;;;8.83;2.53;;;7.40;99.90;;;;;;4917076;29;20240;-75
2023/11/26 15:17:30;;;;;;;8.70;3.10;;;7.40;99.90;;;;;;4917103;29;20281;-77
2023/11/26 15:19:59;;;;;;;6.97;3.07;;;7.40;99.90;;;;;;4916809;29;20205;-76
2023/11/26 15:22:26;;;;;;;9.33;2.80;;;7.40;99.90;;;;;;4916909;29;20209;-77
2023/11/26 15:24:53;;;;;;;6.93;3.50;;;7.30;99.90;;;;;;4920189;29;20217;-75
2023/11/26 15:27:20;;;;;;;7.00;3.17;;;7.30;99.90;;;;;;4925783;29;20228;-76
2023/11/26 15:29:47;;;;;;;7.53;2.90;;;7.30;99.90;;;;;;4917028;29;20233;-76
2023/11/26 15:32:15;;;;;;;11.13;3.00;;;7.20;99.90;;;;;;4916974;29;20209;-77
2023/11/26 15:34:42;;;;;;;6.43;2.70;;;7.10;99.90;;;;;;4916926;29;20229;-76
2023/11/26 15:37:11;;;;;;;7.10;2.73;;;7.10;99.90;;;;;;4916802;29;20237;-77
2023/11/26 15:39:38;;;;;;;8.60;2.63;;;7.00;99.90;;;;;;4916920;29;20213;-76
2023/11/26 15:42:05;;;;;;;10.47;2.90;;;7.00;99.90;;;;;;4916816;29;20257;-75
2023/11/26 15:44:32;;;;;;;6.73;2.50;;;7.10;99.90;;;;;;4917343;29;20237;-76
2023/11/26 15:46:59;;;;;;;6.20;2.03;;;7.10;99.90;;;;;;4917901;29;20261;-77
2023/11/26 15:49:26;;;;;;;7.20;2.57;;;7.10;99.90;;;;;;4917396;29;20265;-76
2023/11/26 15:51:54;;;;;;;5.97;2.30;;;7.20;99.90;;;;;;4918149;29;20218;-76
2023/11/26 15:54:22;;;;;;;6.73;2.80;;;7.10;99.90;;;;;;4916810;29;20233;-76
2023/11/26 15:56:52;;;;;;;4.80;2.20;;;7.10;99.90;;;;;;4916866;29;20616;-76
2023/11/26 15:59:20;;;;;;;5.10;2.67;;;7.10;99.90;;;;;;4917402;29;20210;-77
2023/11/26 16:01:47;;;;;;;14.23;2.97;;;7.00;99.90;;;;;;4923010;29;20589;-75
2023/11/26 16:04:14;;;;;;;7.00;2.43;;;6.90;99.90;;;;;;4923300;29;20332;-77
2023/11/26 16:06:41;;;;;;;4.93;2.20;;;6.80;99.90;;;;;;4923296;29;20284;-77
2023/11/26 16:09:10;;;;;;;5.53;1.77;;;6.90;99.90;;;;;;4923098;29;20300;-75
2023/11/26 16:11:38;;;;;;;5.37;3.20;;;6.80;99.90;;;;;;4922797;29;20296;-76
2023/11/26 16:14:05;;;;;;;6.67;3.23;;;6.70;99.90;;;;;;4922587;29;20265;-75
2023/11/26 16:16:32;;;;;;;7.60;1.70;;;6.70;99.90;;;;;;4922613;29;20625;-77
2023/11/26 16:18:59;;;;;;;6.57;1.83;;;6.60;99.90;;;;;;4917375;29;20331;-74
2023/11/26 16:21:28;;;;;;;5.23;2.10;;;6.60;99.90;;;;;;4923420;29;20667;-74
2023/11/26 16:23:57;;;;;;;6.30;1.90;;;6.60;99.90;;;;;;4925295;29;20216;-73
2023/11/26 16:26:24;;;;;;;5.60;1.67;;;6.60;99.90;;;;;;4941728;29;20209;-75
2023/11/26 16:28:53;;;;;;;4.40;2.00;;;6.60;99.90;;;;;;4930564;29;20228;-74
2023/11/26 16:31:21;;;;;;;5.37;2.10;;;6.50;99.90;;;;;;4922674;29;20209;-75
2023/11/26 16:33:50;;;;;;;10.43;2.37;;;6.60;99.90;;;;;;4922579;29;20236;-75
2023/11/26 16:36:19;;;;;;;4.77;2.47;;;6.60;99.90;;;;;;4926995;29;20201;-75
2023/11/26 16:38:46;;;;;;;5.90;1.97;;;6.70;99.90;;;;;;4921746;29;20242;-76
2023/11/26 16:41:16;;;;;;;4.83;1.97;;;6.70;99.90;;;;;;4903554;29;20293;-75
2023/11/26 16:43:44;;;;;;;6.00;1.77;;;6.60;99.90;;;;;;4903224;29;20591;-74
2023/11/26 16:46:12;;;;;;;3.93;1.77;;;6.50;99.90;;;;;;4903761;29;20221;-73
2023/11/26 16:48:40;;;;;;;2.87;1.63;;;6.50;99.90;;;;;;4912820;29;20304;-74
2023/11/26 16:51:08;;;;;;;6.77;1.93;;;6.60;99.90;;;;;;4922539;29;20205;-72
2023/11/26 16:53:36;;;;;;;6.50;1.77;;;6.50;99.90;;;;;;4922369;29;20700;-73
2023/11/26 16:56:08;;;;;;;5.77;2.27;;;6.50;99.90;;;;;;4922443;29;20213;-73
2023/11/26 16:58:36;;;;;;;6.00;2.20;;;6.40;99.90;;;;;;4922142;29;20724;-73
2023/11/26 17:01:05;;;;;;;3.33;1.87;;;6.40;99.90;;;;;;4922722;29;20209;-74
2023/11/26 17:03:34;;;;;;;4.93;1.77;;;6.40;99.90;;;;;;4922300;29;20645;-73
2023/11/26 17:06:02;;;;;;;4.03;2.43;;;6.40;99.90;;;;;;4922225;29;20264;-75
2023/11/26 17:08:30;;;;;;;3.27;1.27;;;6.40;99.90;;;;;;4922257;29;20208;-73
2023/11/26 17:10:58;;;;;;;7.10;2.73;;;6.40;99.90;;;;;;4921350;29;20257;-74
2023/11/26 17:13:25;;;;;;;5.10;1.50;;;6.40;99.90;;;;;;4928224;29;20647;-74
2023/11/26 17:15:52;;;;;;;8.33;3.63;;;6.30;99.90;;;;;;4913992;29;20233;-77
2023/11/26 17:18:19;;;;;;;3.60;1.30;;;6.30;99.90;;;;;;4906341;29;20731;-76
2023/11/26 17:20:48;;;;;;;9.60;2.17;;;6.30;99.90;;;;;;4919509;29;20209;-72
2023/11/26 17:23:16;;;;;;;4.73;1.90;;;6.30;99.90;;;;;;4918924;29;20712;-73
2023/11/26 17:25:46;;;;;;;6.67;1.63;;;6.20;99.90;;;;;;4919036;29;20214;-73
2023/11/26 17:28:14;;;;;;;2.03;1.30;;;6.20;99.90;;;;;;4918639;29;20229;-75
2023/11/26 17:30:41;;;;;;;5.27;1.50;;;6.20;99.90;;;;;;4919097;29;20210;-74
2023/11/26 17:33:08;;;;;;;3.70;1.50;;;6.20;99.90;;;;;;4919074;29;20234;-70
2023/11/26 17:35:44;;;;;;;4.30;1.73;;;6.20;99.90;;;;;;4916684;29;20210;-75
2023/11/26 17:38:12;;;;;;;5.57;1.80;;;6.20;99.90;;;;;;4927895;29;20243;-73
2023/11/26 17:40:39;;;;;;;3.80;1.87;;;6.20;99.90;;;;;;4917496;29;20217;-72
2023/11/26 17:43:07;;;;;;;3.30;1.60;;;6.20;99.90;;;;;;4917389;29;20588;-75
2023/11/26 17:45:34;;;;;;;4.03;1.63;;;6.20;99.90;;;;;;4917103;29;20214;-71
2023/11/26 17:48:01;;;;;;;6.30;1.87;;;6.20;99.90;;;;;;4916179;29;20218;-72
2023/11/26 17:50:29;;;;;;;3.77;1.63;;;6.10;99.90;;;;;;4916411;29;20764;-71
2023/11/26 17:52:56;;;;;;;2.40;1.40;;;6.20;99.90;;;;;;4916925;29;20669;-76
2023/11/26 17:55:24;;;;;;;4.60;1.70;;;6.20;99.90;;;;;;4917062;29;20633;-74
2023/11/26 17:57:52;;;;;;;3.30;1.50;;;6.10;99.90;;;;;;4917236;29;20265;-74
2023/11/26 18:00:20;;;;;;;2.20;1.50;;;6.20;99.90;;;;;;4917324;29;20217;-73
2023/11/26 18:02:47;;;;;;;5.50;1.80;;;6.10;99.90;;;;;;4916835;29;20233;-73
2023/11/26 18:05:17;;;;;;;3.40;1.60;;;6.20;99.90;;;;;;4917186;29;20205;-73
2023/11/26 18:07:44;;;;;;;4.13;1.27;;;6.20;99.90;;;;;;4916386;29;20218;-77
2023/11/26 18:10:12;;;;;;;4.60;1.40;;;6.20;99.90;;;;;;4916787;29;20221;-74
2023/11/26 18:12:40;;;;;;;3.47;1.80;;;6.20;99.90;;;;;;4919427;29;20209;-75
2023/11/26 18:15:11;;;;;;;9.13;1.97;;;6.10;99.90;;;;;;4934693;29;20252;-73
2023/11/26 18:17:38;;;;;;;7.77;1.83;;;6.10;99.90;;;;;;4916896;29;20296;-72
2023/11/26 18:20:07;;;;;;;10.33;2.23;;;6.10;99.90;;;;;;4916653;29;20261;-73
2023/11/26 18:22:34;;;;;;;4.93;1.67;;;6.00;99.90;;;;;;4916889;29;20720;-74
2023/11/26 18:25:01;;;;;;;4.53;2.13;;;6.00;99.90;;;;;;4917341;29;20229;-74
2023/11/26 18:27:29;;;;;;;5.80;1.53;;;6.00;99.90;;;;;;4917736;29;20213;-73
2023/11/26 18:29:57;;;;;;;3.90;1.60;;;6.10;99.90;;;;;;4905449;29;20254;-74
2023/11/26 18:32:24;;;;;;;6.47;1.70;;;6.00;99.90;;;;;;4905480;29;20241;-73
2023/11/26 18:34:53;;;;;;;3.53;1.90;;;6.00;99.90;;;;;;4917422;29;20230;-73
2023/11/26 18:37:21;;;;;;;5.93;2.00;;;6.00;99.90;;;;;;4912672;29;20217;-73
2023/11/26 18:39:48;;;;;;;5.83;2.17;;;6.00;99.90;;;;;;4915247;29;20248;-74
2023/11/26 18:42:16;;;;;;;10.63;2.20;;;5.90;99.90;;;;;;4929757;29;20212;-72
2023/11/26 18:44:43;;;;;;;4.67;1.73;;;6.00;99.90;;;;;;4917533;29;20229;-73
2023/11/26 18:47:13;;;;;;;3.07;1.73;;;6.00;99.90;;;;;;4904559;29;20650;-72
2023/11/26 18:49:41;;;;;;;4.57;1.97;;;6.00;99.90;;;;;;4915891;29;20214;-74
2023/11/26 18:52:10;;;;;;;5.50;2.00;;;6.00;99.90;;;;;;4917380;29;20210;-73
2023/11/26 18:54:38;;;;;;;5.53;1.70;;;6.10;99.90;;;;;;4917329;29;20230;-73
2023/11/26 18:57:06;;;;;;;3.67;1.70;;;6.00;99.90;;;;;;4917217;29;20637;-72
2023/11/26 18:59:33;;;;;;;3.57;1.37;;;6.10;99.90;;;;;;4911760;29;20325;-72
2023/11/26 19:02:00;;;;;;;3.33;1.93;;;6.20;99.90;;;;;;4908103;29;20206;-72
2023/11/26 19:04:28;;;;;;;10.17;2.90;;;6.20;99.90;;;;;;4916708;29;20226;-74
2023/11/26 19:06:56;;;;;;;11.33;2.73;;;6.20;99.90;;;;;;4917221;29;20217;-72
2023/11/26 19:09:23;;;;;;;2.77;1.47;;;6.20;99.90;;;;;;4916671;29;20201;-73
2023/11/26 19:11:50;;;;;;;4.70;1.50;;;6.20;99.90;;;;;;4917446;29;20214;-72
2023/11/26 19:14:19;;;;;;;3.40;1.67;;;6.20;99.90;;;;;;4916711;29;20245;-72
2023/11/26 19:16:47;;;;;;;3.97;1.90;;;6.20;99.90;;;;;;4917390;29;20225;-72
2023/11/26 19:19:14;;;;;;;6.67;1.80;;;6.20;99.90;;;;;;4916758;29;20234;-73
2023/11/26 19:21:44;;;;;;;3.90;1.50;;;6.20;99.90;;;;;;4921466;29;20221;-72
2023/11/26 19:24:11;;;;;;;6.07;1.70;;;6.10;99.90;;;;;;4921608;29;20230;-72
2023/11/26 19:26:38;;;;;;;3.47;1.97;;;6.10;99.90;;;;;;4921041;29;20209;-72
2023/11/26 19:29:06;;;;;;;3.67;1.73;;;6.10;99.90;;;;;;4917209;29;20314;-74
2023/11/26 19:31:33;;;;;;;2.87;2.03;;;6.10;99.90;;;;;;4916947;29;20209;-72
2023/11/26 19:34:01;;;;;;;4.17;2.07;;;6.20;99.90;;;;;;4910027;29;20598;-72
2023/11/26 19:36:28;;;;;;;3.07;1.70;;;6.10;99.90;;;;;;4913983;29;20232;-73
2023/11/26 19:38:56;;;;;;;6.47;2.30;;;6.00;99.90;;;;;;4917060;29;20279;-72
2023/11/26 19:41:24;;;;;;;3.60;1.73;;;6.00;99.90;;;;;;4916741;29;20233;-73
2023/11/26 19:43:51;;;;;;;3.07;1.80;;;6.00;99.90;;;;;;4916852;29;20230;-73
2023/11/26 19:46:19;;;;;;;4.27;2.20;;;6.10;99.90;;;;;;4916891;29;20208;-73
2023/11/26 19:48:47;;;;;;;3.73;2.27;;;6.20;99.90;;;;;;4916868;29;20253;-73
2023/11/26 19:51:15;;;;;;;6.47;1.80;;;6.20;99.90;;;;;;4916879;29;20210;-72
2023/11/26 19:53:42;;;;;;;4.27;2.10;;;6.10;99.90;;;;;;4916821;29;20234;-74
2023/11/26 19:56:13;;;;;;;4.57;1.87;;;6.10;99.90;;;;;;4917146;29;20213;-73
2023/11/26 19:58:41;;;;;;;3.77;1.63;;;6.20;99.90;;;;;;4917589;29;20350;-73
2023/11/26 20:01:10;;;;;;;3.40;1.50;;;6.10;99.90;;;;;;4917475;29;20206;-75
2023/11/26 20:03:37;;;;;;;6.43;2.20;;;6.10;99.90;;;;;;4916709;29;20292;-73
2023/11/26 20:06:05;;;;;;;4.07;1.87;;;6.00;99.90;;;;;;4917740;29;20213;-73
2023/11/26 20:08:32;;;;;;;5.57;2.33;;;6.00;99.90;;;;;;4909201;29;20210;-73
2023/11/26 20:11:00;;;;;;;4.27;1.67;;;6.00;99.90;;;;;;4916791;29;20249;-74
2023/11/26 20:13:29;;;;;;;8.73;2.20;;;6.00;99.90;;;;;;4916301;29;20589;-74
2023/11/26 20:15:56;;;;;;;5.23;1.83;;;5.90;99.90;;;;;;4916567;29;20214;-72
2023/11/26 20:18:23;;;;;;;9.10;1.87;;;5.90;99.90;;;;;;4916620;29;20246;-73
2023/11/26 20:20:51;;;;;;;13.40;1.93;;;5.90;99.90;;;;;;4916735;29;20221;-74
2023/11/26 20:23:18;;;;;;;2.83;1.87;;;5.90;99.90;;;;;;4916813;29;20313;-74
2023/11/26 20:25:48;;;;;;;3.03;1.77;;;5.80;99.90;;;;;;4920845;29;20221;-72
2023/11/26 20:28:15;;;;;;;4.53;1.80;;;5.80;99.90;;;;;;4918051;29;20674;-73
2023/11/26 20:30:44;;;;;;;5.70;2.43;;;5.90;99.90;;;;;;4916735;29;20214;-73
2023/11/26 20:33:12;;;;;;;3.90;1.70;;;5.80;99.90;;;;;;4915984;29;20225;-73
2023/11/26 20:35:39;;;;;;;3.40;1.77;;;5.80;99.90;;;;;;4916287;29;20212;-74
2023/11/26 20:38:06;;;;;;;6.93;2.20;;;5.80;99.90;;;;;;4915633;29;20217;-74
2023/11/26 20:40:33;;;;;;;2.80;1.50;;;5.80;99.90;;;;;;4914951;29;20245;-75
2023/11/26 20:43:00;;;;;;;4.43;2.10;;;5.90;99.90;;;;;;4904674;29;20257;-73
2023/11/26 20:45:27;;;;;;;6.07;1.63;;;5.90;99.90;;;;;;4915367;29;20205;-73
2023/11/26 20:47:56;;;;;;;4.60;1.90;;;5.80;99.90;;;;;;4918368;29;20206;-72
2023/11/26 20:50:23;;;;;;;5.63;2.00;;;5.80;99.90;;;;;;4919307;29;20581;-73
2023/11/26 20:52:50;;;;;;;4.33;1.50;;;5.70;99.90;;;;;;4919001;29;20569;-72
2023/11/26 20:55:18;;;;;;;3.10;1.73;;;5.70;99.90;;;;;;4919377;29;20206;-72
2023/11/26 20:57:47;;;;;;;6.10;1.40;;;5.70;99.90;;;;;;4918412;29;20292;-72
2023/11/26 21:00:15;;;;;;;6.13;1.77;;;5.70;99.90;;;;;;4918905;29;20324;-73
2023/11/26 21:02:42;;;;;;;4.43;1.83;;;5.70;99.90;;;;;;4919300;29;20221;-73
2023/11/26 21:05:11;;;;;;;4.73;1.40;;;5.80;99.90;;;;;;4919176;29;20705;-73
2023/11/26 21:07:38;;;;;;;4.30;1.47;;;5.80;99.90;;;;;;4919036;29;20237;-73
2023/11/26 21:10:07;;;;;;;4.57;1.40;;;5.80;99.90;;;;;;4919377;29;20296;-73
2023/11/26 21:12:35;;;;;;;2.23;1.50;;;5.80;99.90;;;;;;4918738;29;20581;-73
2023/11/26 21:15:04;;;;;;;2.37;1.60;;;5.80;99.90;;;;;;4917361;29;20233;-72
2023/11/26 21:17:33;;;;;;;5.17;1.40;;;5.80;99.90;;;;;;4918524;29;20629;-72
2023/11/26 21:20:00;;;;;;;4.27;2.50;;;5.80;99.90;;;;;;4918629;29;20240;-73
2023/11/26 21:22:29;;;;;;;3.57;1.57;;;5.80;99.90;;;;;;4919038;29;20244;-74
2023/11/26 21:24:56;;;;;;;3.57;1.60;;;5.90;99.90;;;;;;4918688;29;20316;-72
2023/11/26 21:27:23;;;;;;;4.07;1.70;;;5.80;99.90;;;;;;4919010;29;20222;-72
2023/11/26 21:29:50;;;;;;;4.40;1.90;;;5.80;99.90;;;;;;4918912;29;20216;-74
2023/11/26 21:32:18;;;;;;;6.50;1.87;;;5.80;99.90;;;;;;4919001;29;20202;-73
2023/11/26 21:34:45;;;;;;;6.40;1.50;;;5.80;99.90;;;;;;4918639;29;20230;-74
2023/11/26 21:37:13;;;;;;;1.83;1.33;;;5.80;99.90;;;;;;4918835;29;20390;-72
2023/11/26 21:39:43;;;;;;;2.90;1.23;;;5.80;99.90;;;;;;4918426;29;20234;-72
2023/11/26 21:42:14;;;;;;;3.77;1.50;;;5.80;99.90;;;;;;4918653;29;20210;-72
2023/11/26 21:44:41;;;;;;;4.23;1.80;;;5.80;99.90;;;;;;4918493;29;20236;-73
2023/11/26 21:47:08;;;;;;;2.93;1.37;;;5.80;99.90;;;;;;4918632;29;20224;-72
2023/11/26 21:49:35;;;;;;;5.83;1.70;;;5.80;99.90;;;;;;4916343;29;20209;-73
2023/11/26 21:52:03;;;;;;;4.77;1.30;;;5.80;99.90;;;;;;4918055;29;20221;-72
2023/11/26 21:54:30;;;;;;;4.10;1.63;;;5.80;99.90;;;;;;4914775;29;20286;-74
2023/11/26 21:56:58;;;;;;;3.30;1.40;;;5.80;99.90;;;;;;4917714;29;20772;-73
